LYTV/TIV METAR and TAF weather

Enter ICAO airport designator
Station Type Date Time Source
LYTV METAR 2021/03/01 21:30 UTC NOAA

LYTV 012130Z VRB08KT CAVOK 14/M05 Q1028


Station Type Date Time Source
LYTV Decoded METAR 2021/03/01 21:30 UTC NOAA

Tivat, Serbia and Montenegro (LYTV) 42-24N 018-44E 5M
Mar 01, 2021 - 04:30 PM EST / 2021.03.01 2130 UTC
Wind: Variable at 9 MPH (8 KT):0
Visibility: greater than 7 mile(s):0
Temperature: 57 F (14 C)
Dew Point: 23 F (-5 C)
Relative Humidity: 26%
Pressure (altimeter): 30.36 in. Hg (1028 hPa)
ob: LYTV 012130Z VRB08KT CAVOK 14/M05 Q1028
cycle: 21

Station Type Date Time Source
LYTV TAF 2021/03/01 18:21 UTC NOAA

TAF LYTV 011700Z 0118/0218 02010KT CAVOK TX17/0212Z TN02/0205Z
TEMPO 0120/0205 02015G27KT
BECMG 0209/0211 24007KT

Example: see airport list